createdAt,value
2023-01-26T00:01:23.636Z,82.60
2023-01-26T00:03:51.494Z,82.40
2023-01-26T00:06:21.222Z,82.50
2023-01-26T00:08:52.230Z,82.50
2023-01-26T00:11:30.207Z,82.50
2023-01-26T00:13:59.780Z,82.60
2023-01-26T00:16:27.976Z,82.60
2023-01-26T00:18:54.999Z,82.80
2023-01-26T00:21:24.163Z,83.20
2023-01-26T00:23:52.449Z,82.60
2023-01-26T00:26:24.279Z,82.70
2023-01-26T00:28:53.097Z,82.60
2023-01-26T00:31:24.701Z,83.10
2023-01-26T00:33:54.156Z,82.60
2023-01-26T00:36:21.031Z,82.50
2023-01-26T00:38:48.141Z,82.30
2023-01-26T00:41:33.622Z,82.30
2023-01-26T00:44:01.486Z,82.30
2023-01-26T00:46:28.704Z,82.30
2023-01-26T00:48:55.697Z,82.40
2023-01-26T00:51:22.545Z,82.50
2023-01-26T00:53:49.440Z,82.60
2023-01-26T00:56:16.357Z,83.00
2023-01-26T00:58:44.715Z,82.40
2023-01-26T01:01:12.088Z,82.20
2023-01-26T01:03:38.943Z,82.10
2023-01-26T01:06:05.923Z,82.20
2023-01-26T01:08:32.771Z,82.30
2023-01-26T01:11:08.977Z,82.50
2023-01-26T01:13:36.219Z,82.00
2023-01-26T01:16:16.474Z,82.60
2023-01-26T01:18:44.804Z,80.80
2023-01-26T01:21:15.842Z,82.50
2023-01-26T01:23:43.886Z,82.70
2023-01-26T01:26:11.766Z,82.70
2023-01-26T01:28:39.617Z,82.70
2023-01-26T01:31:09.761Z,82.70
2023-01-26T01:33:37.055Z,82.50
2023-01-26T01:36:08.703Z,82.60
2023-01-26T01:38:35.983Z,82.60
2023-01-26T01:41:03.066Z,82.90
2023-01-26T01:43:30.576Z,82.90
2023-01-26T01:46:01.234Z,82.80
2023-01-26T01:49:03.428Z,82.60
2023-01-26T01:51:41.800Z,82.30
2023-01-26T01:54:16.889Z,81.70
2023-01-26T01:56:50.511Z,82.30
2023-01-26T01:59:20.680Z,82.30
2023-01-26T02:01:51.894Z,82.40
2023-01-26T02:04:22.626Z,82.30
2023-01-26T02:06:53.014Z,82.30
2023-01-26T02:09:47.566Z,77.90
2023-01-26T02:12:19.983Z,81.70
2023-01-26T02:14:46.963Z,81.90
2023-01-26T02:17:13.813Z,81.70
2023-01-26T02:20:07.792Z,81.50
2023-01-26T02:22:42.678Z,81.40
2023-01-26T02:25:40.712Z,81.60
2023-01-26T02:28:07.527Z,79.90
2023-01-26T02:30:34.484Z,82.10
2023-01-26T02:33:01.791Z,82.30
2023-01-26T02:35:28.622Z,82.30
2023-01-26T02:37:55.419Z,82.20
2023-01-26T02:40:46.438Z,82.30
2023-01-26T02:43:13.407Z,80.40
2023-01-26T02:45:42.154Z,82.60
2023-01-26T02:48:08.960Z,82.40
2023-01-26T02:50:36.149Z,82.50
2023-01-26T02:53:04.259Z,82.90
2023-01-26T02:55:31.179Z,82.40
2023-01-26T02:58:05.695Z,82.10
2023-01-26T03:00:41.936Z,80.50
2023-01-26T03:03:24.439Z,81.60
2023-01-26T03:05:52.544Z,79.80
2023-01-26T03:08:19.332Z,81.60
2023-01-26T03:10:47.587Z,81.70
2023-01-26T03:13:14.455Z,81.70
2023-01-26T03:15:52.495Z,82.40
2023-01-26T03:18:40.423Z,82.10
2023-01-26T03:21:34.515Z,82.20
2023-01-26T03:24:20.560Z,81.70
2023-01-26T03:27:06.330Z,82.00
2023-01-26T03:29:34.611Z,82.10
2023-01-26T03:32:01.557Z,82.30
2023-01-26T03:34:29.596Z,82.60
2023-01-26T03:36:56.878Z,82.70
2023-01-26T03:39:42.398Z,82.60
2023-01-26T03:42:27.989Z,81.90
2023-01-26T03:45:13.588Z,81.90
2023-01-26T03:47:59.156Z,82.10
2023-01-26T03:50:44.618Z,82.30
2023-01-26T03:53:39.365Z,82.30
2023-01-26T03:56:24.427Z,81.80
2023-01-26T03:58:56.371Z,82.30
2023-01-26T04:01:29.100Z,82.10
2023-01-26T04:04:15.870Z,82.30
2023-01-26T04:07:06.454Z,82.30
2023-01-26T04:09:34.800Z,82.40
2023-01-26T04:12:02.245Z,82.50
2023-01-26T04:14:49.515Z,82.70
2023-01-26T04:17:37.701Z,82.80
2023-01-26T04:20:25.203Z,82.80
2023-01-26T04:22:52.123Z,82.80
2023-01-26T04:25:21.936Z,82.80
2023-01-26T04:27:48.910Z,82.80
2023-01-26T04:30:17.320Z,82.70
2023-01-26T04:32:46.138Z,82.70
2023-01-26T04:35:13.462Z,82.70
2023-01-26T04:37:40.325Z,82.80
2023-01-26T04:40:09.089Z,83.30
2023-01-26T04:42:36.091Z,82.80
2023-01-26T04:45:03.170Z,82.50
2023-01-26T04:47:30.044Z,82.20
2023-01-26T04:49:56.846Z,82.00
2023-01-26T04:52:23.740Z,81.70
2023-01-26T04:54:50.595Z,81.70
2023-01-26T04:57:20.486Z,81.90
2023-01-26T04:59:47.334Z,81.80
2023-01-26T05:02:14.388Z,81.70
2023-01-26T05:04:41.224Z,81.80
2023-01-26T05:07:08.047Z,82.00
2023-01-26T05:09:34.872Z,82.20
2023-01-26T05:12:21.642Z,82.40
2023-01-26T05:14:48.456Z,82.40
2023-01-26T05:17:15.232Z,82.30
2023-01-26T05:19:42.117Z,82.20
2023-01-26T05:22:10.448Z,82.30
2023-01-26T05:24:39.049Z,82.50
2023-01-26T05:27:21.068Z,82.60
2023-01-26T05:29:49.669Z,82.70
2023-01-26T05:32:16.692Z,82.70
2023-01-26T05:34:43.557Z,82.70
2023-01-26T05:37:12.098Z,82.70
2023-01-26T05:39:40.540Z,82.50
2023-01-26T05:42:07.398Z,82.20
2023-01-26T05:44:34.226Z,82.30
2023-01-26T05:47:01.022Z,82.40
2023-01-26T05:49:28.051Z,82.20
2023-01-26T05:51:54.855Z,82.30
2023-01-26T05:54:21.832Z,82.40
2023-01-26T05:56:48.682Z,82.40
2023-01-26T05:59:15.599Z,82.20
2023-01-26T06:01:42.418Z,81.90
2023-01-26T06:04:09.299Z,81.80
2023-01-26T06:06:36.278Z,82.00
2023-01-26T06:09:03.398Z,82.10
2023-01-26T06:11:32.425Z,82.20
2023-01-26T06:13:59.236Z,82.10
2023-01-26T06:16:26.092Z,82.10
2023-01-26T06:18:53.027Z,82.30
2023-01-26T06:21:19.830Z,81.90
2023-01-26T06:23:46.848Z,81.90
2023-01-26T06:26:15.217Z,82.10
2023-01-26T06:28:42.069Z,82.10
2023-01-26T06:31:10.748Z,82.60
2023-01-26T06:33:38.702Z,82.70
2023-01-26T06:36:10.072Z,82.60
2023-01-26T06:38:37.641Z,82.50
2023-01-26T06:41:07.716Z,82.40
2023-01-26T06:43:36.445Z,82.20
2023-01-26T06:46:05.366Z,82.00
2023-01-26T06:48:36.842Z,82.40
2023-01-26T06:51:47.270Z,81.90
2023-01-26T06:54:15.350Z,79.30
2023-01-26T06:56:42.374Z,82.20
2023-01-26T06:59:10.806Z,82.20
2023-01-26T07:01:49.863Z,82.60
2023-01-26T07:04:18.414Z,82.40
2023-01-26T07:06:45.523Z,82.50
2023-01-26T07:09:12.663Z,82.40
2023-01-26T07:11:39.536Z,82.30
2023-01-26T07:14:06.565Z,82.30
2023-01-26T07:16:34.011Z,82.50
2023-01-26T07:19:01.157Z,82.70
2023-01-26T07:21:28.079Z,82.70
2023-01-26T07:23:56.453Z,82.40
2023-01-26T07:26:23.543Z,82.40
2023-01-26T07:28:50.737Z,82.30
2023-01-26T07:31:17.879Z,82.30
2023-01-26T07:33:44.835Z,82.50
2023-01-26T07:36:11.825Z,82.80
2023-01-26T07:38:39.307Z,82.80
2023-01-26T07:41:12.877Z,82.90
2023-01-26T07:43:41.248Z,82.40
2023-01-26T07:46:08.974Z,82.90
2023-01-26T07:48:36.416Z,83.00
2023-01-26T07:51:04.906Z,82.90
2023-01-26T07:53:34.176Z,82.80
2023-01-26T07:56:13.710Z,82.80
2023-01-26T07:58:40.881Z,81.50
2023-01-26T08:01:10.365Z,82.70
2023-01-26T08:03:37.708Z,82.60
2023-01-26T08:06:05.503Z,82.60
2023-01-26T08:08:33.150Z,82.40
2023-01-26T08:11:01.566Z,82.40
2023-01-26T08:13:35.770Z,82.30
2023-01-26T08:16:12.841Z,82.20
2023-01-26T08:18:42.814Z,81.70
2023-01-26T08:21:11.654Z,82.20
2023-01-26T08:23:38.698Z,82.30
2023-01-26T08:26:12.588Z,82.40
2023-01-26T08:28:39.985Z,82.30
2023-01-26T08:31:11.549Z,82.30
2023-01-26T08:33:40.791Z,82.10
2023-01-26T08:36:12.008Z,81.90
2023-01-26T08:38:39.210Z,81.50
2023-01-26T08:41:07.129Z,81.90
2023-01-26T08:43:34.221Z,82.00
2023-01-26T08:46:01.950Z,82.10
2023-01-26T08:48:31.077Z,82.10
2023-01-26T08:51:01.645Z,82.00
2023-01-26T08:53:32.634Z,81.70
2023-01-26T08:56:06.145Z,81.60
2023-01-26T08:58:33.740Z,81.20
2023-01-26T09:01:05.592Z,81.60
2023-01-26T09:03:32.888Z,81.50
2023-01-26T09:06:01.924Z,81.60
2023-01-26T09:08:28.933Z,81.60
2023-01-26T09:10:56.135Z,81.80
2023-01-26T09:13:23.916Z,81.70
2023-01-26T09:15:50.866Z,81.70
2023-01-26T09:18:18.091Z,82.00
2023-01-26T09:20:45.309Z,82.00
2023-01-26T09:23:12.730Z,82.20
2023-01-26T09:25:40.514Z,82.40
2023-01-26T09:28:07.510Z,81.90
2023-01-26T09:30:34.543Z,82.20
2023-01-26T09:33:04.268Z,82.40
2023-01-26T09:35:31.293Z,82.00
2023-01-26T09:37:58.175Z,82.30
2023-01-26T09:41:05.368Z,82.50
2023-01-26T09:43:43.442Z,79.10
2023-01-26T09:46:59.349Z,81.50
2023-01-26T09:49:48.912Z,82.30
2023-01-26T09:52:39.360Z,79.40
2023-01-26T09:55:19.460Z,80.50
2023-01-26T09:58:07.701Z,82.10
2023-01-26T10:00:55.632Z,79.30
2023-01-26T10:03:47.413Z,81.40
2023-01-26T10:06:30.265Z,79.10
2023-01-26T10:09:02.886Z,81.50
2023-01-26T10:11:38.270Z,82.40
2023-01-26T10:14:20.265Z,82.00
2023-01-26T10:16:53.751Z,81.40
2023-01-26T10:19:35.898Z,81.80
2023-01-26T10:22:28.743Z,82.20
2023-01-26T10:25:00.101Z,79.50
2023-01-26T10:27:29.423Z,82.20
2023-01-26T10:29:56.509Z,82.30
2023-01-26T10:32:23.641Z,82.50
2023-01-26T10:34:51.707Z,82.40
2023-01-26T10:37:28.471Z,82.30
2023-01-26T10:40:04.196Z,81.30
2023-01-26T10:42:34.620Z,81.40
2023-01-26T10:45:06.306Z,81.60
2023-01-26T10:47:33.452Z,81.50
2023-01-26T10:50:23.357Z,81.70
2023-01-26T10:53:05.390Z,77.90
2023-01-26T10:55:34.311Z,78.80
2023-01-26T10:58:01.709Z,81.90
2023-01-26T11:00:34.109Z,82.00
2023-01-26T11:03:19.744Z,81.30
2023-01-26T11:06:06.047Z,78.70
2023-01-26T11:08:39.388Z,82.30
2023-01-26T11:11:11.749Z,81.00
2023-01-26T11:13:38.629Z,81.60
2023-01-26T11:16:24.198Z,81.10
2023-01-26T11:19:13.014Z,78.30
2023-01-26T11:22:03.586Z,80.00
2023-01-26T11:24:46.398Z,78.50
2023-01-26T11:27:37.847Z,81.30
2023-01-26T11:30:49.476Z,80.90
2023-01-26T11:33:25.914Z,78.40
2023-01-26T11:36:11.774Z,82.10
2023-01-26T11:38:49.684Z,82.20
2023-01-26T11:41:37.938Z,81.10
2023-01-26T11:44:21.614Z,79.90
2023-01-26T11:47:10.647Z,81.50
2023-01-26T11:50:23.678Z,82.00
2023-01-26T11:53:19.385Z,78.20
2023-01-26T11:56:04.442Z,80.80
2023-01-26T11:58:44.511Z,80.60
2023-01-26T12:01:29.001Z,80.50
2023-01-26T12:03:57.066Z,79.60
2023-01-26T12:06:47.005Z,81.80
2023-01-26T12:09:26.966Z,77.80
2023-01-26T12:12:05.175Z,81.30
2023-01-26T12:14:53.299Z,80.90
2023-01-26T12:17:58.401Z,81.40
2023-01-26T12:20:40.239Z,80.70
2023-01-26T12:23:12.515Z,81.40
2023-01-26T12:25:54.471Z,81.20
2023-01-26T12:28:39.087Z,80.20
2023-01-26T12:31:34.038Z,81.20
2023-01-26T12:34:01.287Z,79.30
2023-01-26T12:37:05.325Z,81.40
2023-01-26T12:39:37.030Z,77.40
2023-01-26T12:42:43.098Z,81.00
2023-01-26T12:45:21.901Z,77.70
2023-01-26T12:48:04.856Z,80.20
2023-01-26T12:50:49.039Z,80.20
2023-01-26T12:53:37.865Z,78.70
2023-01-26T12:56:20.189Z,78.10
2023-01-26T12:58:52.131Z,81.30
2023-01-26T13:01:24.367Z,81.00
2023-01-26T13:03:57.777Z,81.00
2023-01-26T13:06:31.131Z,80.60
2023-01-26T13:08:57.930Z,81.40
2023-01-26T13:11:44.714Z,81.60
2023-01-26T13:14:35.274Z,77.60
2023-01-26T13:17:17.206Z,77.40
2023-01-26T13:19:44.070Z,78.00
2023-01-26T13:22:25.953Z,81.20
2023-01-26T13:25:13.377Z,79.10
2023-01-26T13:27:40.201Z,80.10
2023-01-26T13:30:42.015Z,81.50
2023-01-26T13:33:24.969Z,76.90
2023-01-26T13:35:55.558Z,77.70
2023-01-26T13:38:48.031Z,80.90
2023-01-26T13:41:20.904Z,80.00
2023-01-26T13:44:16.421Z,80.60
2023-01-26T13:46:50.781Z,77.80
2023-01-26T13:49:41.017Z,80.70
2023-01-26T13:52:21.538Z,79.60
2023-01-26T13:54:50.974Z,78.80
2023-01-26T13:57:29.269Z,81.10
2023-01-26T14:00:00.994Z,80.00
2023-01-26T14:02:34.676Z,80.70
2023-01-26T14:05:03.368Z,80.40
2023-01-26T14:07:44.272Z,81.20
2023-01-26T14:10:21.228Z,79.10
2023-01-26T14:12:56.558Z,75.50
2023-01-26T14:15:28.766Z,80.60
2023-01-26T14:18:05.128Z,81.00
2023-01-26T14:20:42.060Z,79.50
2023-01-26T14:23:15.039Z,80.00
2023-01-26T14:25:47.106Z,80.80
2023-01-26T14:28:28.600Z,80.80
2023-01-26T14:31:10.733Z,80.20
2023-01-26T14:33:38.197Z,79.20
2023-01-26T14:36:06.124Z,80.80
2023-01-26T14:38:46.382Z,80.80
2023-01-26T14:41:24.671Z,78.60
2023-01-26T14:43:56.596Z,80.30
2023-01-26T14:46:42.241Z,80.50
2023-01-26T14:49:16.536Z,79.20
2023-01-26T14:51:55.612Z,79.60
2023-01-26T14:54:39.362Z,79.20
2023-01-26T14:57:09.510Z,78.30
2023-01-26T14:59:40.374Z,80.30
2023-01-26T15:02:18.804Z,80.30
2023-01-26T15:04:50.997Z,78.50
2023-01-26T15:07:56.825Z,80.00
2023-01-26T15:10:41.405Z,76.80
2023-01-26T15:13:11.141Z,78.40
2023-01-26T15:15:42.020Z,79.80
2023-01-26T15:18:14.706Z,80.00
2023-01-26T15:20:47.510Z,79.20
2023-01-26T15:23:32.336Z,80.10
2023-01-26T15:26:09.313Z,78.40
2023-01-26T15:28:38.611Z,79.00
2023-01-26T15:31:07.182Z,80.70
2023-01-26T15:33:49.724Z,80.60
2023-01-26T15:36:50.345Z,78.10
2023-01-26T15:39:59.617Z,78.50
2023-01-26T15:42:30.213Z,75.40
2023-01-26T15:44:58.834Z,80.60
2023-01-26T15:47:28.482Z,80.50
2023-01-26T15:49:57.112Z,80.50
2023-01-26T15:52:30.273Z,80.40
2023-01-26T15:54:57.258Z,80.20
2023-01-26T15:57:24.094Z,80.60
2023-01-26T15:59:50.965Z,80.40
2023-01-26T16:02:21.234Z,80.30
2023-01-26T16:04:50.324Z,80.10
2023-01-26T16:07:18.930Z,80.10
2023-01-26T16:09:45.814Z,80.20
2023-01-26T16:12:31.180Z,80.30
2023-01-26T16:14:59.021Z,80.10
2023-01-26T16:17:25.897Z,80.40
2023-01-26T16:19:52.820Z,80.40
2023-01-26T16:22:20.391Z,80.40
2023-01-26T16:24:47.446Z,80.30
2023-01-26T16:27:14.355Z,80.40
2023-01-26T16:29:41.129Z,80.40
2023-01-26T16:32:35.934Z,80.10
2023-01-26T16:35:02.919Z,78.60
2023-01-26T16:37:29.806Z,80.30
2023-01-26T16:39:56.713Z,80.20
2023-01-26T16:42:23.724Z,80.20
2023-01-26T16:44:50.640Z,80.20
2023-01-26T16:47:17.514Z,80.30
2023-01-26T16:49:44.357Z,80.30
2023-01-26T16:52:11.413Z,80.30
2023-01-26T16:54:38.319Z,80.40
2023-01-26T16:57:05.314Z,80.70
2023-01-26T16:59:32.289Z,80.50
2023-01-26T17:01:59.335Z,80.40
2023-01-26T17:04:26.379Z,80.30
2023-01-26T17:06:53.217Z,80.20
2023-01-26T17:09:21.216Z,80.00
2023-01-26T17:11:48.083Z,80.10
2023-01-26T17:14:15.054Z,80.30
2023-01-26T17:16:42.039Z,80.30
2023-01-26T17:19:09.507Z,80.30
2023-01-26T17:21:37.218Z,80.20
2023-01-26T17:24:06.832Z,80.10
2023-01-26T17:26:33.672Z,80.00
2023-01-26T17:29:00.685Z,79.90
2023-01-26T17:31:28.608Z,80.00
2023-01-26T17:33:55.878Z,80.00
2023-01-26T17:36:23.203Z,79.70
2023-01-26T17:38:50.166Z,79.70
2023-01-26T17:41:17.723Z,79.80
2023-01-26T17:43:45.913Z,79.80
2023-01-26T17:46:16.414Z,79.80
2023-01-26T17:48:45.218Z,79.60
2023-01-26T17:51:19.895Z,79.80
2023-01-26T17:53:51.718Z,78.90
2023-01-26T17:56:21.637Z,79.80
2023-01-26T17:58:52.105Z,79.70
2023-01-26T18:01:20.450Z,79.80
2023-01-26T18:03:47.402Z,80.00
2023-01-26T18:06:14.661Z,80.00
2023-01-26T18:08:41.989Z,80.00
2023-01-26T18:11:12.836Z,80.00
2023-01-26T18:13:40.574Z,79.80
2023-01-26T18:16:10.491Z,79.90
2023-01-26T18:18:37.358Z,79.90
2023-01-26T18:21:12.527Z,80.00
2023-01-26T18:23:39.932Z,78.40
2023-01-26T18:26:07.840Z,79.90
2023-01-26T18:28:34.867Z,79.80
2023-01-26T18:31:12.637Z,79.60
2023-01-26T18:33:39.793Z,78.30
2023-01-26T18:36:11.711Z,79.80
2023-01-26T18:38:40.288Z,79.60
2023-01-26T18:41:16.788Z,79.80
2023-01-26T18:43:44.547Z,79.00
2023-01-26T18:46:11.997Z,79.80
2023-01-26T18:48:38.967Z,79.80
2023-01-26T18:51:06.161Z,79.70
2023-01-26T18:53:33.889Z,79.70
2023-01-26T18:56:10.307Z,79.50
2023-01-26T18:58:39.058Z,78.60
2023-01-26T19:01:11.724Z,79.40
2023-01-26T19:03:41.713Z,79.50
2023-01-26T19:06:09.300Z,79.80
2023-01-26T19:08:36.156Z,79.80
2023-01-26T19:11:08.279Z,80.00
2023-01-26T19:13:35.869Z,79.30
2023-01-26T19:16:03.088Z,80.00
2023-01-26T19:18:30.216Z,80.00
2023-01-26T19:21:03.923Z,80.10
2023-01-26T19:23:30.971Z,79.40
2023-01-26T19:25:58.507Z,80.20
2023-01-26T19:28:25.522Z,80.10
2023-01-26T19:30:52.422Z,80.10
2023-01-26T19:33:25.226Z,80.10
2023-01-26T19:35:53.041Z,80.10
2023-01-26T19:38:20.705Z,80.00
2023-01-26T19:40:50.750Z,79.90
2023-01-26T19:43:19.191Z,79.90
2023-01-26T19:45:55.194Z,79.70
2023-01-26T19:48:25.180Z,78.40
2023-01-26T19:51:01.226Z,79.80
2023-01-26T19:53:29.392Z,78.40
2023-01-26T19:55:56.900Z,80.20
2023-01-26T19:58:23.864Z,79.60
2023-01-26T20:00:51.014Z,79.50
2023-01-26T20:03:18.833Z,79.30
2023-01-26T20:05:45.788Z,79.50
2023-01-26T20:08:12.710Z,79.70
2023-01-26T20:10:39.559Z,79.80
2023-01-26T20:13:06.523Z,79.80
2023-01-26T20:15:35.500Z,80.00
2023-01-26T20:18:04.086Z,79.80
2023-01-26T20:20:30.960Z,79.80
2023-01-26T20:22:57.941Z,79.80
2023-01-26T20:25:24.996Z,79.90
2023-01-26T20:27:52.759Z,79.80
2023-01-26T20:30:20.056Z,79.90
2023-01-26T20:32:47.179Z,80.00
2023-01-26T20:35:14.763Z,80.00
2023-01-26T20:37:41.661Z,80.50
2023-01-26T20:40:09.351Z,80.00
2023-01-26T20:42:36.259Z,79.90
2023-01-26T20:45:03.318Z,79.90
2023-01-26T20:47:32.453Z,79.60
2023-01-26T20:50:01.864Z,79.40
2023-01-26T20:52:28.836Z,79.40
2023-01-26T20:54:55.803Z,79.50
2023-01-26T20:57:22.645Z,79.80
2023-01-26T20:59:49.477Z,79.80
2023-01-26T21:02:16.924Z,79.80
2023-01-26T21:04:43.831Z,79.80
2023-01-26T21:07:10.915Z,80.40
2023-01-26T21:09:37.940Z,80.00
2023-01-26T21:12:05.445Z,80.00
2023-01-26T21:14:33.236Z,80.10
2023-01-26T21:17:00.175Z,80.00
2023-01-26T21:19:27.147Z,79.80
2023-01-26T21:21:54.083Z,79.70
2023-01-26T21:24:21.004Z,79.80
2023-01-26T21:26:48.095Z,80.00
2023-01-26T21:29:16.680Z,80.20
2023-01-26T21:31:45.585Z,80.30
2023-01-26T21:34:12.935Z,80.30
2023-01-26T21:36:39.758Z,80.20
2023-01-26T21:39:10.843Z,80.30
2023-01-26T21:41:55.875Z,80.50
2023-01-26T21:44:32.227Z,80.50
2023-01-26T21:47:06.121Z,80.10
2023-01-26T21:49:33.016Z,79.80
2023-01-26T21:52:18.382Z,79.90
2023-01-26T21:54:45.541Z,79.90
2023-01-26T21:57:30.915Z,80.00
2023-01-26T21:59:57.766Z,80.00
2023-01-26T22:02:24.699Z,80.10
2023-01-26T22:04:52.125Z,79.90
2023-01-26T22:07:18.996Z,79.80
2023-01-26T22:09:45.858Z,79.90
2023-01-26T22:12:12.738Z,79.80
2023-01-26T22:14:39.950Z,79.60
2023-01-26T22:17:06.871Z,79.70
2023-01-26T22:19:33.680Z,79.70
2023-01-26T22:22:00.548Z,79.90
2023-01-26T22:24:27.421Z,80.00
2023-01-26T22:26:54.293Z,80.20
2023-01-26T22:29:21.307Z,80.30
2023-01-26T22:31:49.406Z,80.10
2023-01-26T22:34:16.496Z,80.10
2023-01-26T22:36:43.433Z,80.20
2023-01-26T22:39:10.710Z,80.20
2023-01-26T22:41:37.880Z,80.50
2023-01-26T22:44:04.819Z,80.50
2023-01-26T22:46:32.487Z,80.70
2023-01-26T22:48:59.894Z,80.70
2023-01-26T22:51:29.980Z,80.60
2023-01-26T22:53:58.793Z,80.50
2023-01-26T22:56:27.420Z,80.50
2023-01-26T22:58:59.920Z,80.30
2023-01-26T23:01:31.168Z,80.30
2023-01-26T23:03:58.330Z,80.50
2023-01-26T23:06:26.122Z,75.90
2023-01-26T23:08:53.533Z,80.80
2023-01-26T23:11:25.150Z,80.80
2023-01-26T23:13:54.235Z,80.50
2023-01-26T23:16:23.567Z,80.60
2023-01-26T23:18:52.883Z,80.20
2023-01-26T23:21:20.614Z,80.10
2023-01-26T23:23:47.813Z,80.00
2023-01-26T23:26:14.679Z,80.20
2023-01-26T23:28:44.074Z,80.10
2023-01-26T23:31:14.466Z,80.10
2023-01-26T23:33:42.011Z,80.40
2023-01-26T23:36:11.508Z,80.50
2023-01-26T23:38:38.422Z,80.60
2023-01-26T23:41:05.691Z,80.30
2023-01-26T23:43:32.828Z,80.20
2023-01-26T23:46:00.025Z,80.30
2023-01-26T23:48:27.051Z,80.40
2023-01-26T23:51:07.404Z,80.40
2023-01-26T23:53:35.543Z,79.70
2023-01-26T23:56:10.714Z,80.30
2023-01-26T23:58:38.011Z,79.90
